Time;durP1;ratioP1;P1;durP2;ratioP2;P2;SDS_P1;SDS_P2;PMS_P1;PMS_P2;Temp;Humidity;BMP_temperature;BMP_pressure;BME280_temperature;BME280_humidity;BME280_pressure;Samples;Min_cycle;Max_cycle;Signal;HPM_P1;HPM_P2
2023/01/01 00:05:15;;;;;;;12.13;8.43;;;5.20;99.90;;;;;;20065230;29;20045;-60
2023/01/01 00:15:16;;;;;;;3.65;2.08;;;5.40;99.90;;;;;;20043229;29;20049;-54
2023/01/01 00:25:18;;;;;;;9.80;6.05;;;5.90;99.90;;;;;;20075641;29;20041;-59
2023/01/01 00:35:20;;;;;;;8.40;4.32;;;6.10;99.90;;;;;;20101828;29;20049;-59
2023/01/01 00:45:21;;;;;;;15.80;5.43;;;6.00;99.90;;;;;;20022407;29;20133;-58
2023/01/01 00:55:23;;;;;;;59.17;5.28;;;6.00;99.90;;;;;;20089461;29;20046;-47
2023/01/01 01:05:25;;;;;;;565.55;19.30;;;6.00;99.90;;;;;;20119681;29;20038;-49
2023/01/01 01:15:26;;;;;;;64.22;5.00;;;6.10;99.90;;;;;;20053508;29;20045;-52
2023/01/01 01:25:28;;;;;;;29.05;4.88;;;6.00;99.90;;;;;;20088296;29;20046;-59
2023/01/01 01:35:29;;;;;;;150.52;7.15;;;6.10;99.90;;;;;;20101695;29;20053;-48
2023/01/01 01:45:31;;;;;;;11.18;3.05;;;6.10;99.90;;;;;;20062871;29;20066;-46
2023/01/01 01:55:36;;;;;;;189.57;7.78;;;6.10;99.90;;;;;;20086715;29;20045;-51
2023/01/01 02:05:40;;;;;;;325.80;12.13;;;6.00;99.90;;;;;;20115697;29;20078;-59
2023/01/01 02:15:53;;;;;;;667.38;22.42;;;6.00;99.90;;;;;;20047297;29;20050;-59
2023/01/01 02:26:03;;;;;;;292.27;11.93;;;6.10;99.90;;;;;;20087488;29;20082;-59
2023/01/01 02:36:07;;;;;;;224.17;9.77;;;6.10;99.90;;;;;;20113130;29;20042;-48
2023/01/01 02:46:11;;;;;;;43.65;4.97;;;6.00;99.90;;;;;;20112572;29;20049;-50
2023/01/01 02:56:18;;;;;;;71.75;5.78;;;5.90;99.90;;;;;;20111800;29;20049;-48
2023/01/01 03:06:40;;;;;;;170.18;8.13;;;5.80;99.90;;;;;;20050823;29;20046;-57
2023/01/01 03:16:54;;;;;;;159.63;7.78;;;5.60;99.90;;;;;;20020624;29;20525;-50
2023/01/01 03:27:12;;;;;;;94.90;8.45;;;5.70;99.90;;;;;;20091249;29;20098;-58
2023/01/01 03:37:22;;;;;;;475.20;16.73;;;5.70;99.90;;;;;;20090129;29;20098;-59
2023/01/01 03:47:24;;;;;;;181.55;11.20;;;5.40;99.90;;;;;;20032736;29;20050;-49
2023/01/01 03:57:43;;;;;;;39.35;6.88;;;5.40;99.90;;;;;;20093047;29;20348;-50
2023/01/01 04:07:46;;;;;;;9.85;5.93;;;5.70;99.90;;;;;;20084265;29;20115;-59
2023/01/01 04:17:48;;;;;;;1095.38;36.25;;;5.70;99.90;;;;;;20038275;29;20094;-53
2023/01/01 04:27:49;;;;;;;402.75;15.95;;;5.70;99.90;;;;;;20110187;29;20089;-58
2023/01/01 04:37:51;;;;;;;17.70;6.90;;;5.60;99.90;;;;;;20121758;29;20133;-52
2023/01/01 04:47:53;;;;;;;74.63;7.80;;;5.50;99.90;;;;;;20032382;29;20065;-52
2023/01/01 04:57:54;;;;;;;365.25;15.40;;;5.50;99.90;;;;;;20109819;29;20046;-57
2023/01/01 05:07:56;;;;;;;446.35;18.27;;;5.50;99.90;;;;;;20111352;29;20106;-47
2023/01/01 05:17:57;;;;;;;14.30;7.70;;;5.60;99.90;;;;;;20026093;29;20404;-49
2023/01/01 05:27:59;;;;;;;683.30;26.88;;;5.50;99.90;;;;;;20106394;29;20559;-58
2023/01/01 05:38:00;;;;;;;39.58;5.95;;;5.40;99.90;;;;;;20117723;29;20065;-51
2023/01/01 05:48:03;;;;;;;112.75;8.70;;;5.40;99.90;;;;;;20100443;29;20049;-51
2023/01/01 05:58:04;;;;;;;642.35;24.27;;;5.30;99.90;;;;;;20099765;29;20563;-58
2023/01/01 06:08:06;;;;;;;73.97;7.50;;;5.30;99.90;;;;;;20062949;29;20508;-49
2023/01/01 06:18:07;;;;;;;474.92;21.15;;;5.50;99.90;;;;;;20038975;29;20050;-57
2023/01/01 06:28:09;;;;;;;352.77;16.77;;;5.40;99.90;;;;;;20104168;29;20049;-59
2023/01/01 06:38:10;;;;;;;200.30;10.93;;;5.40;99.90;;;;;;20069812;29;20084;-59
2023/01/01 06:48:12;;;;;;;289.35;14.98;;;5.50;99.90;;;;;;20036473;29;20046;-49
2023/01/01 06:58:13;;;;;;;20.58;7.47;;;5.40;99.90;;;;;;20102391;29;20057;-59
2023/01/01 07:08:15;;;;;;;72.00;8.82;;;5.60;99.90;;;;;;20101066;29;20038;-59
2023/01/01 07:18:16;;;;;;;66.38;10.45;;;5.60;99.90;;;;;;20017779;29;20588;-49
2023/01/01 07:28:19;;;;;;;302.63;17.63;;;5.50;99.90;;;;;;20102511;29;20046;-51
2023/01/01 07:38:21;;;;;;;88.47;9.50;;;5.50;99.90;;;;;;20109726;29;20045;-59
2023/01/01 07:48:22;;;;;;;2.70;2.10;;;5.70;99.90;;;;;;20033293;29;20061;-48
2023/01/01 07:58:24;;;;;;;11.38;7.20;;;6.00;99.90;;;;;;20100102;29;20053;-59
2023/01/01 08:08:26;;;;;;;320.88;14.45;;;5.90;99.90;;;;;;20096197;29;20050;-59
2023/01/01 08:18:27;;;;;;;110.97;9.23;;;6.00;99.90;;;;;;20016036;29;20504;-59
2023/01/01 08:28:30;;;;;;;54.03;9.90;;;5.80;99.90;;;;;;20099974;29;20045;-51
2023/01/01 08:38:31;;;;;;;1.98;1.30;;;5.80;99.90;;;;;;20075581;29;20049;-59
2023/01/01 08:48:33;;;;;;;51.50;8.23;;;6.10;99.90;;;;;;19965129;29;20128;-50
2023/01/01 08:58:36;;;;;;;11.55;6.90;;;6.30;99.90;;;;;;19954811;29;20396;-59
2023/01/01 09:08:38;;;;;;;4.38;2.90;;;6.10;99.90;;;;;;19909579;29;20046;-60
2023/01/01 09:18:39;;;;;;;4.75;3.60;;;6.50;99.90;;;;;;19892947;29;20477;-48
2023/01/01 09:28:41;;;;;;;5.88;3.00;;;7.00;99.90;;;;;;19960354;29;20046;-60
2023/01/01 09:38:47;;;;;;;5.47;3.40;;;7.50;99.90;;;;;;19966197;29;20050;-52
2023/01/01 09:49:01;;;;;;;5.38;3.45;;;8.20;99.90;;;;;;20098921;29;20053;-54
2023/01/01 09:59:03;;;;;;;4.50;2.40;;;8.90;99.90;;;;;;20087505;29;20054;-62
2023/01/01 10:09:49;;;;;;;3.40;2.60;;;9.40;99.90;;;;;;20041345;29;20041;-56
2023/01/01 10:19:57;;;;;;;2.55;2.00;;;9.40;99.90;;;;;;19803723;29;20118;-56
2023/01/01 10:30:02;;;;;;;3.97;1.90;;;9.60;99.90;;;;;;19803590;30;20074;-54
2023/01/01 10:40:26;;;;;;;3.78;2.47;;;9.90;99.90;;;;;;19762176;30;20646;-57
2023/01/01 10:50:46;;;;;;;2.40;1.83;;;10.30;99.90;;;;;;19858009;29;20492;-55
2023/01/01 11:00:58;;;;;;;3.70;2.33;;;10.40;99.90;;;;;;20094373;29;20563;-61
2023/01/01 11:11:01;;;;;;;3.08;2.08;;;10.20;99.90;;;;;;20078395;29;20041;-55
2023/01/01 11:21:05;;;;;;;2.58;2.17;;;10.70;99.90;;;;;;20100765;29;20049;-57
2023/01/01 11:31:14;;;;;;;2.70;2.05;;;11.20;99.90;;;;;;20109357;29;20050;-56
2023/01/01 11:41:16;;;;;;;3.15;1.83;;;11.20;99.90;;;;;;20033018;29;20073;-55
2023/01/01 11:51:29;;;;;;;2.33;1.73;;;10.80;99.90;;;;;;20047522;29;20045;-56
2023/01/01 12:01:43;;;;;;;3.38;2.22;;;10.90;99.90;;;;;;19941178;29;20066;-57
2023/01/01 12:11:59;;;;;;;3.20;2.05;;;10.40;99.90;;;;;;20029478;29;20079;-55
2023/01/01 12:22:00;;;;;;;5.47;2.60;;;10.20;99.90;;;;;;20033811;29;20453;-55
2023/01/01 12:32:09;;;;;;;4.15;2.42;;;9.70;99.90;;;;;;20075664;29;20050;-60
2023/01/01 12:42:41;;;;;;;5.50;3.42;;;9.10;99.90;;;;;;20100723;29;20045;-54
2023/01/01 12:53:17;;;;;;;6.13;3.55;;;8.80;99.90;;;;;;20121099;29;20086;-56
2023/01/01 13:03:24;;;;;;;5.38;3.40;;;8.50;99.90;;;;;;20120930;29;20102;-50
2023/01/01 13:13:26;;;;;;;5.22;3.25;;;8.40;99.90;;;;;;20070627;29;20106;-56
2023/01/01 13:23:30;;;;;;;6.32;4.00;;;8.70;99.90;;;;;;20056678;29;20053;-56
2023/01/01 13:33:33;;;;;;;5.43;3.22;;;8.90;99.90;;;;;;20118940;29;20057;-60
2023/01/01 13:43:34;;;;;;;4.38;2.50;;;9.00;99.90;;;;;;20077771;29;20046;-55
2023/01/01 13:53:36;;;;;;;4.07;3.00;;;8.90;99.90;;;;;;20071413;29;20121;-56
2023/01/01 14:03:43;;;;;;;6.00;3.33;;;8.80;99.90;;;;;;20100884;29;20053;-53
2023/01/01 14:13:46;;;;;;;5.30;2.03;;;8.50;99.90;;;;;;20062914;29;20049;-51
2023/01/01 14:23:55;;;;;;;5.47;3.90;;;8.20;99.90;;;;;;20056197;29;20038;-54
2023/01/01 14:33:57;;;;;;;5.43;3.23;;;8.60;99.90;;;;;;20113740;29;20041;-60
2023/01/01 14:44:06;;;;;;;6.28;4.10;;;8.40;99.90;;;;;;20113148;29;20086;-54
2023/01/01 14:54:20;;;;;;;6.15;3.25;;;8.30;99.90;;;;;;20096097;29;20114;-55
2023/01/01 15:04:27;;;;;;;6.47;3.38;;;7.80;99.90;;;;;;20110539;29;20042;-54
2023/01/01 15:14:37;;;;;;;6.95;4.75;;;7.60;99.90;;;;;;20052789;29;20042;-52
2023/01/01 15:24:44;;;;;;;11.35;6.88;;;7.30;99.90;;;;;;20073888;29;20049;-53
2023/01/01 15:34:51;;;;;;;8.50;4.63;;;7.00;99.90;;;;;;20093071;29;20128;-53
2023/01/01 15:44:53;;;;;;;37.63;7.22;;;7.00;99.90;;;;;;20059944;29;20540;-60
2023/01/01 15:54:55;;;;;;;437.73;19.58;;;6.90;99.90;;;;;;20074231;29;20041;-60
2023/01/01 16:04:57;;;;;;;302.00;15.30;;;6.80;99.90;;;;;;20108207;29;20038;-59
2023/01/01 16:14:58;;;;;;;546.38;22.67;;;6.80;99.90;;;;;;20054021;29;20038;-60
2023/01/01 16:25:01;;;;;;;11.93;5.22;;;6.80;99.90;;;;;;20089403;29;20046;-60
2023/01/01 16:35:04;;;;;;;86.53;7.47;;;6.60;99.90;;;;;;20105846;29;20058;-60
2023/01/01 16:45:07;;;;;;;4.97;3.40;;;6.70;99.90;;;;;;20122494;29;20041;-60
2023/01/01 16:55:09;;;;;;;13.43;6.22;;;6.60;99.90;;;;;;20120942;29;20101;-60
2023/01/01 17:05:11;;;;;;;19.88;7.18;;;6.60;99.90;;;;;;20104002;29;20049;-60
2023/01/01 17:15:12;;;;;;;10.05;6.18;;;6.40;99.90;;;;;;20056016;29;20139;-60
2023/01/01 17:25:14;;;;;;;188.32;12.52;;;6.30;99.90;;;;;;20086394;29;20125;-60
2023/01/01 17:35:16;;;;;;;11.13;6.15;;;6.10;99.90;;;;;;20118199;29;20041;-58
2023/01/01 17:45:18;;;;;;;330.83;17.52;;;6.30;99.90;;;;;;20065391;29;20050;-54
2023/01/01 17:55:20;;;;;;;157.88;9.48;;;6.40;99.90;;;;;;20085681;29;20576;-53
2023/01/01 18:05:21;;;;;;;169.65;11.70;;;6.50;99.90;;;;;;20116018;29;20484;-53
2023/01/01 18:15:24;;;;;;;8.60;4.95;;;6.60;99.90;;;;;;20050373;29;20200;-54
2023/01/01 18:25:25;;;;;;;101.00;10.07;;;6.60;99.90;;;;;;20084078;29;20049;-52
2023/01/01 18:35:28;;;;;;;141.98;10.13;;;6.80;99.90;;;;;;20113886;29;20484;-60
2023/01/01 18:45:29;;;;;;;152.35;10.57;;;6.80;99.90;;;;;;20113932;29;20042;-56
2023/01/01 18:55:31;;;;;;;19.15;7.25;;;6.70;99.90;;;;;;20112594;29;20452;-53
2023/01/01 19:05:37;;;;;;;7.93;4.97;;;6.70;99.90;;;;;;20111698;29;20384;-60
2023/01/01 19:15:39;;;;;;;27.20;6.32;;;6.70;99.90;;;;;;20027603;29;20136;-60
2023/01/01 19:25:40;;;;;;;8.45;4.55;;;6.70;99.90;;;;;;20081717;29;20113;-55
2023/01/01 19:35:42;;;;;;;7.60;4.40;;;6.70;99.90;;;;;;20109867;29;20465;-53
2023/01/01 19:45:44;;;;;;;4.97;2.92;;;6.80;99.90;;;;;;20036648;29;20094;-54
2023/01/01 19:55:46;;;;;;;6.38;3.70;;;6.80;99.90;;;;;;20064675;29;20045;-58
2023/01/01 20:05:47;;;;;;;8.57;4.80;;;6.70;99.90;;;;;;20108232;29;20109;-58
2023/01/01 20:15:49;;;;;;;7.63;4.57;;;6.80;99.90;;;;;;20039506;29;20046;-58
2023/01/01 20:25:51;;;;;;;12.20;5.70;;;6.80;99.90;;;;;;20080150;29;20045;-58
2023/01/01 20:46:13;;;;;;;8.60;5.60;;;6.80;99.90;;;;;;20107178;29;20110;-58
2023/01/01 20:56:15;;;;;;;9.88;5.30;;;7.00;99.90;;;;;;20090975;29;20495;-49
2023/01/01 21:06:17;;;;;;;43.75;7.40;;;7.00;99.90;;;;;;20103704;29;20129;-59
2023/01/01 21:16:27;;;;;;;7.22;4.63;;;7.00;99.90;;;;;;20031495;29;20049;-59
2023/01/01 21:26:35;;;;;;;8.70;4.13;;;7.00;99.90;;;;;;20096929;29;20440;-59
2023/01/01 21:36:37;;;;;;;9.05;4.90;;;7.10;99.90;;;;;;20119792;29;20121;-59
2023/01/01 21:46:45;;;;;;;5.95;3.45;;;7.10;99.90;;;;;;20054935;29;20051;-52
2023/01/01 21:57:17;;;;;;;7.00;3.97;;;7.00;99.90;;;;;;20080150;29;20122;-55
2023/01/01 22:07:31;;;;;;;3.53;2.42;;;7.00;99.90;;;;;;20111128;29;20118;-54
2023/01/01 22:17:35;;;;;;;7.70;3.92;;;7.00;99.90;;;;;;20022523;29;20061;-59
2023/01/01 22:27:37;;;;;;;3.92;2.70;;;7.00;99.90;;;;;;20100991;29;20111;-52
2023/01/01 22:37:40;;;;;;;5.80;3.20;;;7.00;99.90;;;;;;20114091;29;20465;-51
2023/01/01 22:47:45;;;;;;;7.22;3.30;;;7.00;99.90;;;;;;20113958;29;20049;-59
2023/01/01 22:57:47;;;;;;;6.93;4.18;;;7.00;99.90;;;;;;20112344;29;20491;-59
2023/01/01 23:07:49;;;;;;;6.68;4.10;;;7.00;99.90;;;;;;20087533;29;20513;-59
2023/01/01 23:17:50;;;;;;;4.28;2.90;;;6.90;99.90;;;;;;20035126;29;20042;-59
2023/01/01 23:27:53;;;;;;;6.18;3.10;;;6.90;99.90;;;;;;20098466;29;20421;-59
2023/01/01 23:37:54;;;;;;;5.00;2.70;;;6.70;99.90;;;;;;20109961;29;20050;-59
2023/01/01 23:47:56;;;;;;;3.97;2.10;;;6.60;99.90;;;;;;20036742;29;20130;-49
2023/01/01 23:57:58;;;;;;;7.65;3.50;;;6.10;99.90;;;;;;20097780;29;20046;-52
